sensor_id;sensor_type;location;lat;lon;timestamp;temperature;humidity
6930;DHT22;3504;52.616;13.238;2022-10-16T00:04:36;15.19;85.06
6930;DHT22;3504;52.616;13.238;2022-10-16T00:09:37;15.22;85.37
6930;DHT22;3504;52.616;13.238;2022-10-16T00:14:37;15.23;85.47
6930;DHT22;3504;52.616;13.238;2022-10-16T00:19:41;15.26;85.35
6930;DHT22;3504;52.616;13.238;2022-10-16T00:24:41;15.27;85.29
6930;DHT22;3504;52.616;13.238;2022-10-16T00:29:42;15.29;85.52
6930;DHT22;3504;52.616;13.238;2022-10-16T00:34:43;15.30;85.50
6930;DHT22;3504;52.616;13.238;2022-10-16T00:39:43;15.29;85.65
6930;DHT22;3504;52.616;13.238;2022-10-16T00:44:48;15.35;86.19
6930;DHT22;3504;52.616;13.238;2022-10-16T00:49:55;15.37;85.82
6930;DHT22;3504;52.616;13.238;2022-10-16T00:54:58;15.35;85.96
6930;DHT22;3504;52.616;13.238;2022-10-16T00:59:58;15.36;85.85
6930;DHT22;3504;52.616;13.238;2022-10-16T01:04:59;15.39;85.83
6930;DHT22;3504;52.616;13.238;2022-10-16T01:15:31;15.43;86.08
6930;DHT22;3504;52.616;13.238;2022-10-16T01:20:37;15.50;85.96
6930;DHT22;3504;52.616;13.238;2022-10-16T01:30:58;15.51;85.51
6930;DHT22;3504;52.616;13.238;2022-10-16T01:36:06;15.51;85.64
6930;DHT22;3504;52.616;13.238;2022-10-16T01:41:15;15.50;85.43
6930;DHT22;3504;52.616;13.238;2022-10-16T01:46:19;15.49;85.46
6930;DHT22;3504;52.616;13.238;2022-10-16T01:51:20;15.44;85.53
6930;DHT22;3504;52.616;13.238;2022-10-16T01:56:22;15.47;85.49
6930;DHT22;3504;52.616;13.238;2022-10-16T02:01:26;15.46;85.49
6930;DHT22;3504;52.616;13.238;2022-10-16T02:06:29;15.43;85.60
6930;DHT22;3504;52.616;13.238;2022-10-16T02:11:30;15.44;85.69
6930;DHT22;3504;52.616;13.238;2022-10-16T02:16:40;15.42;85.70
6930;DHT22;3504;52.616;13.238;2022-10-16T02:21:58;15.43;85.81
6930;DHT22;3504;52.616;13.238;2022-10-16T02:27:09;15.42;85.81
6930;DHT22;3504;52.616;13.238;2022-10-16T02:32:12;15.40;85.67
6930;DHT22;3504;52.616;13.238;2022-10-16T02:37:13;15.37;85.82
6930;DHT22;3504;52.616;13.238;2022-10-16T02:42:15;15.39;85.72
6930;DHT22;3504;52.616;13.238;2022-10-16T02:47:17;15.35;85.72
6930;DHT22;3504;52.616;13.238;2022-10-16T02:52:18;15.32;85.74
6930;DHT22;3504;52.616;13.238;2022-10-16T02:57:18;15.29;85.74
6930;DHT22;3504;52.616;13.238;2022-10-16T03:02:19;15.30;85.73
6930;DHT22;3504;52.616;13.238;2022-10-16T03:07:20;15.26;85.48
6930;DHT22;3504;52.616;13.238;2022-10-16T03:12:20;15.24;85.39
6930;DHT22;3504;52.616;13.238;2022-10-16T03:17:21;15.19;85.54
6930;DHT22;3504;52.616;13.238;2022-10-16T03:22:21;15.16;85.44
6930;DHT22;3504;52.616;13.238;2022-10-16T03:27:22;15.09;85.57
6930;DHT22;3504;52.616;13.238;2022-10-16T03:32:23;15.08;85.52
6930;DHT22;3504;52.616;13.238;2022-10-16T03:37:25;15.05;85.20
6930;DHT22;3504;52.616;13.238;2022-10-16T03:42:25;14.96;85.28
6930;DHT22;3504;52.616;13.238;2022-10-16T03:47:26;14.91;85.58
6930;DHT22;3504;52.616;13.238;2022-10-16T03:52:26;14.88;85.51
6930;DHT22;3504;52.616;13.238;2022-10-16T03:57:27;14.85;85.62
6930;DHT22;3504;52.616;13.238;2022-10-16T04:02:27;14.82;86.02
6930;DHT22;3504;52.616;13.238;2022-10-16T04:07:28;14.79;86.28
6930;DHT22;3504;52.616;13.238;2022-10-16T04:12:29;14.79;86.07
6930;DHT22;3504;52.616;13.238;2022-10-16T04:17:29;14.75;85.73
6930;DHT22;3504;52.616;13.238;2022-10-16T04:22:30;14.72;85.81
6930;DHT22;3504;52.616;13.238;2022-10-16T04:27:30;14.68;85.54
6930;DHT22;3504;52.616;13.238;2022-10-16T04:32:31;14.63;85.96
6930;DHT22;3504;52.616;13.238;2022-10-16T04:37:32;14.61;86.70
6930;DHT22;3504;52.616;13.238;2022-10-16T04:42:32;14.58;86.59
6930;DHT22;3504;52.616;13.238;2022-10-16T04:47:33;14.57;86.14
6930;DHT22;3504;52.616;13.238;2022-10-16T04:52:33;14.53;86.68
6930;DHT22;3504;52.616;13.238;2022-10-16T04:57:34;14.48;86.39
6930;DHT22;3504;52.616;13.238;2022-10-16T05:02:35;14.42;86.25
6930;DHT22;3504;52.616;13.238;2022-10-16T05:07:35;14.40;86.28
6930;DHT22;3504;52.616;13.238;2022-10-16T05:12:36;14.36;86.37
6930;DHT22;3504;52.616;13.238;2022-10-16T05:17:36;14.30;86.22
6930;DHT22;3504;52.616;13.238;2022-10-16T05:22:37;14.28;86.20
6930;DHT22;3504;52.616;13.238;2022-10-16T05:27:37;14.27;86.25
6930;DHT22;3504;52.616;13.238;2022-10-16T05:32:38;14.23;86.19
6930;DHT22;3504;52.616;13.238;2022-10-16T05:37:39;14.18;85.88
6930;DHT22;3504;52.616;13.238;2022-10-16T05:42:40;14.17;86.11
6930;DHT22;3504;52.616;13.238;2022-10-16T05:47:41;14.18;86.41
6930;DHT22;3504;52.616;13.238;2022-10-16T05:52:41;14.21;86.66
6930;DHT22;3504;52.616;13.238;2022-10-16T05:57:42;14.30;86.83
6930;DHT22;3504;52.616;13.238;2022-10-16T06:02:42;14.34;86.96
6930;DHT22;3504;52.616;13.238;2022-10-16T06:07:43;14.41;86.91
6930;DHT22;3504;52.616;13.238;2022-10-16T06:12:43;14.44;87.03
6930;DHT22;3504;52.616;13.238;2022-10-16T06:17:44;14.50;87.50
6930;DHT22;3504;52.616;13.238;2022-10-16T06:22:44;14.57;87.46
6930;DHT22;3504;52.616;13.238;2022-10-16T06:27:45;14.63;87.50
6930;DHT22;3504;52.616;13.238;2022-10-16T06:32:45;14.68;87.55
6930;DHT22;3504;52.616;13.238;2022-10-16T06:37:46;14.75;87.33
6930;DHT22;3504;52.616;13.238;2022-10-16T06:42:46;14.84;87.07
6930;DHT22;3504;52.616;13.238;2022-10-16T06:47:46;14.91;87.09
6930;DHT22;3504;52.616;13.238;2022-10-16T06:52:47;14.96;87.17
6930;DHT22;3504;52.616;13.238;2022-10-16T06:57:48;15.06;87.15
6930;DHT22;3504;52.616;13.238;2022-10-16T07:02:49;15.15;86.90
6930;DHT22;3504;52.616;13.238;2022-10-16T07:07:50;15.26;86.75
6930;DHT22;3504;52.616;13.238;2022-10-16T07:12:50;15.37;86.57
6930;DHT22;3504;52.616;13.238;2022-10-16T07:17:51;15.40;86.67
6930;DHT22;3504;52.616;13.238;2022-10-16T07:22:51;15.56;86.57
6930;DHT22;3504;52.616;13.238;2022-10-16T07:27:52;15.74;86.36
6930;DHT22;3504;52.616;13.238;2022-10-16T07:32:53;15.77;85.84
6930;DHT22;3504;52.616;13.238;2022-10-16T07:37:53;15.90;85.71
6930;DHT22;3504;52.616;13.238;2022-10-16T07:42:54;16.05;85.59
6930;DHT22;3504;52.616;13.238;2022-10-16T07:47:55;16.19;85.30
6930;DHT22;3504;52.616;13.238;2022-10-16T07:52:55;16.25;85.00
6930;DHT22;3504;52.616;13.238;2022-10-16T07:57:56;16.26;84.81
6930;DHT22;3504;52.616;13.238;2022-10-16T08:02:58;16.33;84.81
6930;DHT22;3504;52.616;13.238;2022-10-16T08:08:01;16.41;84.69
6930;DHT22;3504;52.616;13.238;2022-10-16T08:13:02;16.45;84.61
6930;DHT22;3504;52.616;13.238;2022-10-16T08:18:04;16.46;84.33
6930;DHT22;3504;52.616;13.238;2022-10-16T08:23:05;16.51;84.26
6930;DHT22;3504;52.616;13.238;2022-10-16T08:28:09;16.62;84.36
6930;DHT22;3504;52.616;13.238;2022-10-16T08:33:10;16.64;84.19
6930;DHT22;3504;52.616;13.238;2022-10-16T08:38:11;16.76;83.76
6930;DHT22;3504;52.616;13.238;2022-10-16T08:44:27;16.82;83.58
6930;DHT22;3504;52.616;13.238;2022-10-16T08:49:11;16.94;83.48
6930;DHT22;3504;52.616;13.238;2022-10-16T08:54:31;17.10;83.27
6930;DHT22;3504;52.616;13.238;2022-10-16T08:59:35;17.35;82.61
6930;DHT22;3504;52.616;13.238;2022-10-16T09:10:23;17.76;81.15
6930;DHT22;3504;52.616;13.238;2022-10-16T09:15:52;18.02;80.66
6930;DHT22;3504;52.616;13.238;2022-10-16T09:21:21;18.34;79.53
6930;DHT22;3504;52.616;13.238;2022-10-16T09:26:23;18.36;79.27
6930;DHT22;3504;52.616;13.238;2022-10-16T09:31:23;18.41;78.61
6930;DHT22;3504;52.616;13.238;2022-10-16T09:36:25;18.28;78.38
6930;DHT22;3504;52.616;13.238;2022-10-16T09:41:27;18.34;78.26
6930;DHT22;3504;52.616;13.238;2022-10-16T09:46:33;18.77;76.94
6930;DHT22;3504;52.616;13.238;2022-10-16T09:51:37;18.74;77.02
6930;DHT22;3504;52.616;13.238;2022-10-16T09:56:37;18.99;76.42
6930;DHT22;3504;52.616;13.238;2022-10-16T10:01:51;19.29;75.38
6930;DHT22;3504;52.616;13.238;2022-10-16T10:06:54;19.18;74.95
6930;DHT22;3504;52.616;13.238;2022-10-16T10:11:57;19.10;75.19
6930;DHT22;3504;52.616;13.238;2022-10-16T10:17:11;18.82;75.28
6930;DHT22;3504;52.616;13.238;2022-10-16T10:33:46;19.49;73.87
6930;DHT22;3504;52.616;13.238;2022-10-16T10:39:02;19.49;73.61
6930;DHT22;3504;52.616;13.238;2022-10-16T10:44:36;19.75;73.36
6930;DHT22;3504;52.616;13.238;2022-10-16T10:50:48;19.74;72.48
6930;DHT22;3504;52.616;13.238;2022-10-16T10:55:40;19.74;72.14
6930;DHT22;3504;52.616;13.238;2022-10-16T11:06:00;19.51;71.63
6930;DHT22;3504;52.616;13.238;2022-10-16T11:16:40;19.47;70.79
6930;DHT22;3504;52.616;13.238;2022-10-16T11:22:03;19.38;71.30
6930;DHT22;3504;52.616;13.238;2022-10-16T11:27:09;19.63;70.75
6930;DHT22;3504;52.616;13.238;2022-10-16T11:32:23;20.14;69.80
6930;DHT22;3504;52.616;13.238;2022-10-16T11:37:36;20.43;67.43
6930;DHT22;3504;52.616;13.238;2022-10-16T11:42:41;20.69;67.64
6930;DHT22;3504;52.616;13.238;2022-10-16T11:47:48;20.75;65.57
6930;DHT22;3504;52.616;13.238;2022-10-16T11:53:37;20.87;65.49
6930;DHT22;3504;52.616;13.238;2022-10-16T11:59:01;20.94;64.89
6930;DHT22;3504;52.616;13.238;2022-10-16T12:09:34;20.93;63.04
6930;DHT22;3504;52.616;13.238;2022-10-16T12:14:39;20.51;62.51
6930;DHT22;3504;52.616;13.238;2022-10-16T12:19:40;20.32;61.12
6930;DHT22;3504;52.616;13.238;2022-10-16T12:24:43;20.35;60.63
6930;DHT22;3504;52.616;13.238;2022-10-16T12:29:44;20.39;60.74
6930;DHT22;3504;52.616;13.238;2022-10-16T12:34:45;20.49;61.58
6930;DHT22;3504;52.616;13.238;2022-10-16T12:39:47;20.59;59.35
6930;DHT22;3504;52.616;13.238;2022-10-16T12:44:48;20.55;59.05
6930;DHT22;3504;52.616;13.238;2022-10-16T12:49:54;20.22;60.09
6930;DHT22;3504;52.616;13.238;2022-10-16T12:54:58;20.11;60.56
6930;DHT22;3504;52.616;13.238;2022-10-16T13:00:41;20.25;60.01
6930;DHT22;3504;52.616;13.238;2022-10-16T13:11:23;20.01;59.51
6930;DHT22;3504;52.616;13.238;2022-10-16T13:22:51;19.67;59.92
6930;DHT22;3504;52.616;13.238;2022-10-16T13:28:01;19.46;59.89
6930;DHT22;3504;52.616;13.238;2022-10-16T13:33:10;19.43;59.95
6930;DHT22;3504;52.616;13.238;2022-10-16T13:38:18;19.42;59.09
6930;DHT22;3504;52.616;13.238;2022-10-16T13:43:28;19.57;59.89
6930;DHT22;3504;52.616;13.238;2022-10-16T13:48:30;19.70;58.59
6930;DHT22;3504;52.616;13.238;2022-10-16T13:53:35;19.75;58.31
6930;DHT22;3504;52.616;13.238;2022-10-16T13:58:36;19.78;57.42
6930;DHT22;3504;52.616;13.238;2022-10-16T14:03:37;19.85;58.14
6930;DHT22;3504;52.616;13.238;2022-10-16T14:08:45;19.84;58.12
6930;DHT22;3504;52.616;13.238;2022-10-16T14:13:48;19.80;58.92
6930;DHT22;3504;52.616;13.238;2022-10-16T14:19:03;19.75;59.24
6930;DHT22;3504;52.616;13.238;2022-10-16T14:24:32;19.74;59.61
6930;DHT22;3504;52.616;13.238;2022-10-16T14:29:33;19.71;59.72
6930;DHT22;3504;52.616;13.238;2022-10-16T14:34:38;19.69;60.38
6930;DHT22;3504;52.616;13.238;2022-10-16T14:39:40;19.66;59.66
6930;DHT22;3504;52.616;13.238;2022-10-16T14:44:41;19.64;60.41
6930;DHT22;3504;52.616;13.238;2022-10-16T14:49:42;19.54;58.80
6930;DHT22;3504;52.616;13.238;2022-10-16T14:54:43;19.51;58.77
6930;DHT22;3504;52.616;13.238;2022-10-16T14:59:44;19.46;58.65
6930;DHT22;3504;52.616;13.238;2022-10-16T15:04:45;19.39;58.72
6930;DHT22;3504;52.616;13.238;2022-10-16T15:09:45;19.26;58.11
6930;DHT22;3504;52.616;13.238;2022-10-16T15:14:46;19.19;58.48
6930;DHT22;3504;52.616;13.238;2022-10-16T15:19:46;19.10;59.66
6930;DHT22;3504;52.616;13.238;2022-10-16T15:24:47;18.99;60.00
6930;DHT22;3504;52.616;13.238;2022-10-16T15:29:53;18.87;60.09
6930;DHT22;3504;52.616;13.238;2022-10-16T15:34:53;18.74;60.83
6930;DHT22;3504;52.616;13.238;2022-10-16T15:39:54;18.63;61.21
6930;DHT22;3504;52.616;13.238;2022-10-16T15:44:54;18.46;61.12
6930;DHT22;3504;52.616;13.238;2022-10-16T15:49:55;18.34;61.65
6930;DHT22;3504;52.616;13.238;2022-10-16T15:54:55;18.17;62.10
6930;DHT22;3504;52.616;13.238;2022-10-16T15:59:56;18.03;62.22
6930;DHT22;3504;52.616;13.238;2022-10-16T16:04:56;17.93;62.52
6930;DHT22;3504;52.616;13.238;2022-10-16T16:09:57;17.81;63.02
6930;DHT22;3504;52.616;13.238;2022-10-16T16:14:57;17.68;63.35
6930;DHT22;3504;52.616;13.238;2022-10-16T16:19:58;17.55;63.91
6930;DHT22;3504;52.616;13.238;2022-10-16T16:24:58;17.38;63.96
6930;DHT22;3504;52.616;13.238;2022-10-16T16:30:00;17.23;64.44
6930;DHT22;3504;52.616;13.238;2022-10-16T16:35:04;17.06;65.03
6930;DHT22;3504;52.616;13.238;2022-10-16T16:40:05;16.86;65.24
6930;DHT22;3504;52.616;13.238;2022-10-16T16:45:06;16.67;65.94
6930;DHT22;3504;52.616;13.238;2022-10-16T16:50:07;16.51;66.66
6930;DHT22;3504;52.616;13.238;2022-10-16T16:55:08;16.35;67.22
6930;DHT22;3504;52.616;13.238;2022-10-16T17:00:09;16.15;67.82
6930;DHT22;3504;52.616;13.238;2022-10-16T17:05:10;15.94;68.42
6930;DHT22;3504;52.616;13.238;2022-10-16T17:10:10;15.78;69.11
6930;DHT22;3504;52.616;13.238;2022-10-16T17:15:11;15.63;69.32
6930;DHT22;3504;52.616;13.238;2022-10-16T17:20:11;15.47;69.64
6930;DHT22;3504;52.616;13.238;2022-10-16T17:25:12;15.35;69.93
6930;DHT22;3504;52.616;13.238;2022-10-16T17:30:12;15.19;70.64
6930;DHT22;3504;52.616;13.238;2022-10-16T17:35:13;15.08;71.82
6930;DHT22;3504;52.616;13.238;2022-10-16T17:40:13;14.91;71.93
6930;DHT22;3504;52.616;13.238;2022-10-16T17:45:14;14.69;72.38
6930;DHT22;3504;52.616;13.238;2022-10-16T17:50:14;14.60;72.34
6930;DHT22;3504;52.616;13.238;2022-10-16T17:55:15;14.51;73.22
6930;DHT22;3504;52.616;13.238;2022-10-16T18:00:15;14.40;73.69
6930;DHT22;3504;52.616;13.238;2022-10-16T18:05:16;14.28;73.96
6930;DHT22;3504;52.616;13.238;2022-10-16T18:10:16;14.14;74.41
6930;DHT22;3504;52.616;13.238;2022-10-16T18:15:17;14.02;74.18
6930;DHT22;3504;52.616;13.238;2022-10-16T18:20:17;13.97;74.58
6930;DHT22;3504;52.616;13.238;2022-10-16T18:25:19;13.90;75.08
6930;DHT22;3504;52.616;13.238;2022-10-16T18:30:20;13.83;75.12
6930;DHT22;3504;52.616;13.238;2022-10-16T18:35:21;13.73;75.23
6930;DHT22;3504;52.616;13.238;2022-10-16T18:40:22;13.65;75.70
6930;DHT22;3504;52.616;13.238;2022-10-16T18:45:22;13.53;75.67
6930;DHT22;3504;52.616;13.238;2022-10-16T18:50:23;13.42;75.60
6930;DHT22;3504;52.616;13.238;2022-10-16T18:55:23;13.38;75.54
6930;DHT22;3504;52.616;13.238;2022-10-16T19:00:24;13.20;77.11
6930;DHT22;3504;52.616;13.238;2022-10-16T19:05:24;13.17;76.38
6930;DHT22;3504;52.616;13.238;2022-10-16T19:10:25;13.14;77.01
6930;DHT22;3504;52.616;13.238;2022-10-16T19:15:25;13.06;77.64
6930;DHT22;3504;52.616;13.238;2022-10-16T19:20:26;13.04;77.56
6930;DHT22;3504;52.616;13.238;2022-10-16T19:25:26;12.99;77.78
6930;DHT22;3504;52.616;13.238;2022-10-16T19:30:27;12.94;77.06
6930;DHT22;3504;52.616;13.238;2022-10-16T19:35:27;12.90;77.56
6930;DHT22;3504;52.616;13.238;2022-10-16T19:40:28;12.88;77.52
6930;DHT22;3504;52.616;13.238;2022-10-16T19:45:28;12.88;77.55
6930;DHT22;3504;52.616;13.238;2022-10-16T19:50:29;12.85;78.30
6930;DHT22;3504;52.616;13.238;2022-10-16T19:55:30;12.81;78.75
6930;DHT22;3504;52.616;13.238;2022-10-16T20:00:40;12.80;78.65
6930;DHT22;3504;52.616;13.238;2022-10-16T20:05:54;12.83;78.28
6930;DHT22;3504;52.616;13.238;2022-10-16T20:10:55;12.84;78.68
6930;DHT22;3504;52.616;13.238;2022-10-16T20:15:56;12.83;78.82
6930;DHT22;3504;52.616;13.238;2022-10-16T20:20:57;12.79;78.45
6930;DHT22;3504;52.616;13.238;2022-10-16T20:25:59;12.80;78.24
6930;DHT22;3504;52.616;13.238;2022-10-16T20:31:06;12.79;78.76
6930;DHT22;3504;52.616;13.238;2022-10-16T20:36:15;12.73;79.03
6930;DHT22;3504;52.616;13.238;2022-10-16T20:41:17;12.67;79.11
6930;DHT22;3504;52.616;13.238;2022-10-16T20:46:25;12.62;79.70
6930;DHT22;3504;52.616;13.238;2022-10-16T20:51:29;12.60;79.51
6930;DHT22;3504;52.616;13.238;2022-10-16T20:56:33;12.57;79.77
6930;DHT22;3504;52.616;13.238;2022-10-16T21:01:34;12.53;80.07
6930;DHT22;3504;52.616;13.238;2022-10-16T21:06:37;12.53;79.64
6930;DHT22;3504;52.616;13.238;2022-10-16T21:11:38;12.57;79.76
6930;DHT22;3504;52.616;13.238;2022-10-16T21:16:38;12.52;80.45
6930;DHT22;3504;52.616;13.238;2022-10-16T21:21:39;12.50;80.36
6930;DHT22;3504;52.616;13.238;2022-10-16T21:26:39;12.52;80.26
6930;DHT22;3504;52.616;13.238;2022-10-16T21:31:41;12.49;80.62
6930;DHT22;3504;52.616;13.238;2022-10-16T21:36:41;12.50;80.62
6930;DHT22;3504;52.616;13.238;2022-10-16T21:41:45;12.50;80.69
6930;DHT22;3504;52.616;13.238;2022-10-16T21:46:46;12.53;80.90
6930;DHT22;3504;52.616;13.238;2022-10-16T21:51:49;12.49;80.71
6930;DHT22;3504;52.616;13.238;2022-10-16T21:56:49;12.52;80.59
6930;DHT22;3504;52.616;13.238;2022-10-16T22:01:52;12.48;81.12
6930;DHT22;3504;52.616;13.238;2022-10-16T22:06:53;12.46;80.76
6930;DHT22;3504;52.616;13.238;2022-10-16T22:11:53;12.43;80.73
6930;DHT22;3504;52.616;13.238;2022-10-16T22:16:54;12.30;81.81
6930;DHT22;3504;52.616;13.238;2022-10-16T22:21:54;12.28;81.63
6930;DHT22;3504;52.616;13.238;2022-10-16T22:26:56;12.28;81.07
6930;DHT22;3504;52.616;13.238;2022-10-16T22:31:56;12.33;80.87
6930;DHT22;3504;52.616;13.238;2022-10-16T22:36:57;12.26;80.96
6930;DHT22;3504;52.616;13.238;2022-10-16T22:41:58;12.24;80.93
6930;DHT22;3504;52.616;13.238;2022-10-16T22:46:58;12.22;80.93
6930;DHT22;3504;52.616;13.238;2022-10-16T22:51:58;12.18;80.32
6930;DHT22;3504;52.616;13.238;2022-10-16T22:56:59;12.15;81.91
6930;DHT22;3504;52.616;13.238;2022-10-16T23:01:59;12.17;81.73
6930;DHT22;3504;52.616;13.238;2022-10-16T23:07:00;12.18;81.88
6930;DHT22;3504;52.616;13.238;2022-10-16T23:12:00;12.19;81.64
6930;DHT22;3504;52.616;13.238;2022-10-16T23:17:01;12.26;81.67
6930;DHT22;3504;52.616;13.238;2022-10-16T23:22:01;12.32;81.74
6930;DHT22;3504;52.616;13.238;2022-10-16T23:27:02;12.33;81.81
6930;DHT22;3504;52.616;13.238;2022-10-16T23:32:03;12.40;81.67
6930;DHT22;3504;52.616;13.238;2022-10-16T23:37:05;12.43;81.68
6930;DHT22;3504;52.616;13.238;2022-10-16T23:42:06;12.45;82.54
6930;DHT22;3504;52.616;13.238;2022-10-16T23:47:06;12.39;83.14
6930;DHT22;3504;52.616;13.238;2022-10-16T23:52:07;12.40;83.33
6930;DHT22;3504;52.616;13.238;2022-10-16T23:57:08;12.42;83.01
